createdAt,value
2023-05-18T00:01:55.564Z,10.16
2023-05-18T00:04:25.402Z,10.17
2023-05-18T00:07:00.115Z,10.17
2023-05-18T00:09:28.083Z,10.17
2023-05-18T00:11:56.109Z,10.16
2023-05-18T00:14:24.129Z,10.15
2023-05-18T00:16:55.220Z,10.11
2023-05-18T00:19:24.033Z,10.12
2023-05-18T00:21:53.114Z,10.09
2023-05-18T00:24:21.127Z,10.09
2023-05-18T00:26:49.671Z,10.10
2023-05-18T00:29:17.990Z,10.09
2023-05-18T00:31:46.784Z,10.07
2023-05-18T00:34:15.299Z,10.08
2023-05-18T00:36:43.352Z,10.09
2023-05-18T00:39:11.683Z,10.06
2023-05-18T00:41:40.153Z,10.06
2023-05-18T00:44:08.248Z,9.99
2023-05-18T00:46:36.427Z,9.99
2023-05-18T00:49:04.490Z,9.94
2023-05-18T00:51:33.946Z,9.90
2023-05-18T00:54:02.506Z,9.89
2023-05-18T00:56:30.557Z,9.88
2023-05-18T00:58:58.861Z,9.83
2023-05-18T01:01:31.468Z,9.82
2023-05-18T01:03:59.697Z,9.82
2023-05-18T01:06:27.711Z,9.79
2023-05-18T01:08:55.735Z,9.77
2023-05-18T01:11:34.272Z,9.75
2023-05-18T01:14:21.638Z,9.73
2023-05-18T01:16:55.699Z,9.73
2023-05-18T01:19:46.261Z,9.70
2023-05-18T01:22:40.202Z,9.71
2023-05-18T01:25:31.236Z,9.68
2023-05-18T01:28:07.617Z,9.66
2023-05-18T01:30:37.582Z,9.65
2023-05-18T01:33:10.919Z,9.63
2023-05-18T01:35:39.118Z,9.62
2023-05-18T01:38:07.141Z,9.62
2023-05-18T01:43:07.927Z,9.58
2023-05-18T01:45:36.179Z,9.58
2023-05-18T01:48:04.271Z,9.58
2023-05-18T01:50:39.097Z,9.57
2023-05-18T01:53:25.131Z,9.57
2023-05-18T01:55:54.339Z,9.57
2023-05-18T01:58:22.715Z,9.54
2023-05-18T02:00:50.694Z,9.56
2023-05-18T02:03:18.978Z,9.59
2023-05-18T02:05:48.641Z,9.58
2023-05-18T02:08:17.717Z,9.53
2023-05-18T02:10:45.708Z,9.52
2023-05-18T02:13:13.661Z,9.54
2023-05-18T02:15:41.772Z,9.52
2023-05-18T02:18:09.842Z,9.51
2023-05-18T02:20:39.466Z,9.52
2023-05-18T02:23:07.523Z,9.53
2023-05-18T02:25:35.601Z,9.48
2023-05-18T02:28:03.577Z,9.52
2023-05-18T02:30:34.569Z,9.50
2023-05-18T02:33:02.622Z,9.48
2023-05-18T02:35:31.109Z,9.45
2023-05-18T02:37:59.590Z,9.45
2023-05-18T02:40:27.579Z,9.44
2023-05-18T02:42:55.570Z,9.44
2023-05-18T02:45:23.656Z,9.41
2023-05-18T02:47:51.706Z,9.41
2023-05-18T02:50:19.677Z,9.42
2023-05-18T02:52:50.466Z,9.39
2023-05-18T02:55:18.725Z,9.36
2023-05-18T02:57:48.473Z,9.34
2023-05-18T03:00:18.100Z,9.36
2023-05-18T03:02:49.693Z,9.33
2023-05-18T03:05:18.147Z,9.30
2023-05-18T03:07:52.072Z,9.29
2023-05-18T03:10:20.825Z,9.28
2023-05-18T03:12:49.334Z,9.23
2023-05-18T03:15:20.962Z,9.24
2023-05-18T03:17:48.981Z,9.23
2023-05-18T03:20:16.983Z,9.23
2023-05-18T03:22:44.958Z,9.20
2023-05-18T03:25:13.502Z,9.17
2023-05-18T03:27:41.525Z,9.18
2023-05-18T03:30:10.296Z,9.18
2023-05-18T03:32:38.536Z,9.19
2023-05-18T03:35:07.063Z,9.18
2023-05-18T03:37:35.162Z,9.14
2023-05-18T03:40:12.517Z,9.05
2023-05-18T03:42:41.210Z,9.05
2023-05-18T03:45:10.201Z,9.06
2023-05-18T03:47:38.682Z,9.08
2023-05-18T03:50:07.416Z,9.06
2023-05-18T03:52:35.897Z,9.09
2023-05-18T03:55:03.914Z,9.08
2023-05-18T03:57:32.544Z,9.08
2023-05-18T04:00:00.710Z,9.06
2023-05-18T04:02:28.829Z,9.08
2023-05-18T04:04:59.364Z,9.09
2023-05-18T04:07:27.852Z,9.08
2023-05-18T04:09:57.487Z,9.07
2023-05-18T04:12:25.567Z,9.08
2023-05-18T04:14:55.788Z,9.08
2023-05-18T04:17:24.235Z,9.08
2023-05-18T04:19:52.564Z,9.10
2023-05-18T04:22:20.608Z,9.06
2023-05-18T04:24:48.841Z,9.06
2023-05-18T04:27:16.809Z,9.08
2023-05-18T04:29:45.525Z,9.11
2023-05-18T04:32:13.563Z,9.12
2023-05-18T04:34:42.299Z,9.11
2023-05-18T04:37:11.839Z,9.13
2023-05-18T04:39:40.900Z,9.18
2023-05-18T04:42:09.068Z,9.18
2023-05-18T04:44:38.811Z,9.20
2023-05-18T04:47:09.733Z,9.20
2023-05-18T04:49:37.696Z,9.16
2023-05-18T04:52:07.926Z,9.16
2023-05-18T04:54:35.877Z,9.18
2023-05-18T04:57:04.998Z,9.18
2023-05-18T04:59:33.044Z,9.23
2023-05-18T05:02:01.023Z,9.26
2023-05-18T05:04:29.093Z,9.27
2023-05-18T05:06:57.125Z,9.29
2023-05-18T05:09:25.158Z,9.32
2023-05-18T05:11:53.271Z,9.33
2023-05-18T05:14:21.298Z,9.38
2023-05-18T05:16:49.306Z,9.41
2023-05-18T05:19:17.389Z,9.42
2023-05-18T05:21:45.417Z,9.42
2023-05-18T05:24:13.484Z,9.43
2023-05-18T05:26:41.732Z,9.48
2023-05-18T05:29:09.738Z,9.53
2023-05-18T05:31:37.748Z,9.58
2023-05-18T05:34:05.758Z,9.62
2023-05-18T05:36:35.162Z,9.66
2023-05-18T05:39:03.298Z,9.72
2023-05-18T05:41:32.465Z,9.79
2023-05-18T05:44:00.720Z,9.81
2023-05-18T05:46:28.851Z,9.88
2023-05-18T05:48:57.494Z,9.90
2023-05-18T05:51:25.575Z,9.96
2023-05-18T05:53:53.544Z,10.00
2023-05-18T05:56:21.559Z,9.99
2023-05-18T05:58:49.527Z,10.05
2023-05-18T06:01:17.512Z,10.08
2023-05-18T06:03:46.557Z,10.16
2023-05-18T06:06:14.666Z,10.22
2023-05-18T06:08:42.763Z,10.30
2023-05-18T06:11:11.569Z,10.37
2023-05-18T06:13:40.042Z,10.40
2023-05-18T06:16:08.101Z,10.45
2023-05-18T06:18:36.406Z,10.51
2023-05-18T06:21:04.547Z,10.58
2023-05-18T06:23:32.512Z,10.58
2023-05-18T06:26:00.617Z,10.58
2023-05-18T06:28:28.622Z,10.66
2023-05-18T06:30:56.663Z,10.72
2023-05-18T06:33:25.143Z,10.81
2023-05-18T06:35:53.118Z,10.90
2023-05-18T06:38:21.194Z,11.00
2023-05-18T06:40:49.257Z,11.08
2023-05-18T06:43:17.328Z,11.12
2023-05-18T06:45:45.476Z,11.22
2023-05-18T06:48:13.596Z,11.28
2023-05-18T06:50:41.610Z,11.34
2023-05-18T06:53:09.729Z,11.38
2023-05-18T06:55:37.765Z,11.39
2023-05-18T06:58:05.868Z,11.41
2023-05-18T07:00:33.833Z,11.40
2023-05-18T07:03:03.061Z,11.38
2023-05-18T07:05:31.950Z,11.40
2023-05-18T07:08:00.349Z,11.41
2023-05-18T07:10:30.380Z,11.41
2023-05-18T07:12:59.418Z,11.43
2023-05-18T07:15:27.978Z,11.50
2023-05-18T07:17:56.113Z,11.58
2023-05-18T07:20:26.200Z,11.64
2023-05-18T07:22:56.557Z,11.71
2023-05-18T07:25:24.893Z,11.82
2023-05-18T07:27:54.587Z,11.94
2023-05-18T07:30:23.532Z,12.05
2023-05-18T07:32:52.778Z,12.19
2023-05-18T07:35:21.644Z,12.36
2023-05-18T07:37:51.351Z,12.46
2023-05-18T07:40:19.550Z,12.57
2023-05-18T07:42:47.681Z,12.70
2023-05-18T07:45:15.714Z,12.81
2023-05-18T07:47:43.981Z,12.96
2023-05-18T07:50:12.434Z,13.14
2023-05-18T07:52:40.649Z,13.33
2023-05-18T07:55:09.101Z,13.48
2023-05-18T07:57:37.555Z,13.67
2023-05-18T08:00:07.855Z,13.73
2023-05-18T08:02:36.044Z,13.75
2023-05-18T08:05:04.248Z,13.85
2023-05-18T08:07:34.286Z,13.80
2023-05-18T08:10:02.344Z,13.87
2023-05-18T08:12:31.310Z,13.92
2023-05-18T08:15:04.331Z,13.75
2023-05-18T08:17:33.003Z,13.57
2023-05-18T08:20:01.136Z,13.41
2023-05-18T08:22:29.125Z,13.35
2023-05-18T08:24:57.982Z,13.32
2023-05-18T08:27:26.077Z,13.27
2023-05-18T08:29:54.176Z,13.28
2023-05-18T08:32:22.719Z,13.25
2023-05-18T08:34:53.116Z,13.26
2023-05-18T08:37:21.443Z,13.30
2023-05-18T08:39:49.477Z,13.34
2023-05-18T08:42:49.294Z,13.40
2023-05-18T08:45:33.364Z,13.49
2023-05-18T08:48:02.089Z,13.74
2023-05-18T08:50:32.113Z,13.82
2023-05-18T08:53:03.128Z,13.89
2023-05-18T08:55:31.484Z,13.88
2023-05-18T08:58:01.288Z,13.95
2023-05-18T09:00:29.871Z,14.12
2023-05-18T09:02:58.329Z,14.15
2023-05-18T09:05:26.665Z,14.28
2023-05-18T09:07:54.676Z,14.36
2023-05-18T09:10:22.928Z,14.39
2023-05-18T09:12:51.032Z,14.78
2023-05-18T09:15:19.173Z,15.06
2023-05-18T09:17:47.429Z,15.51
2023-05-18T09:20:15.738Z,15.76
2023-05-18T09:22:43.737Z,15.85
2023-05-18T09:25:12.268Z,15.84
2023-05-18T09:27:40.593Z,15.82
2023-05-18T09:30:12.120Z,16.11
2023-05-18T09:32:40.428Z,16.07
2023-05-18T09:35:09.341Z,16.17
2023-05-18T09:37:37.677Z,16.09
2023-05-18T09:40:08.148Z,16.01
2023-05-18T09:42:43.747Z,16.16
2023-05-18T09:45:28.127Z,16.02
2023-05-18T09:47:56.552Z,16.15
2023-05-18T09:50:25.068Z,16.22
2023-05-18T09:52:53.199Z,16.19
2023-05-18T09:55:21.349Z,16.12
2023-05-18T09:57:50.929Z,16.08
2023-05-18T10:00:22.261Z,16.01
2023-05-18T10:02:53.945Z,15.94
2023-05-18T10:05:23.252Z,15.89
2023-05-18T10:07:54.777Z,15.80
2023-05-18T10:10:24.249Z,15.75
2023-05-18T10:12:53.264Z,15.70
2023-05-18T10:15:23.136Z,15.63
2023-05-18T10:17:52.429Z,15.58
2023-05-18T10:20:21.458Z,15.59
2023-05-18T10:22:50.082Z,15.57
2023-05-18T10:25:21.256Z,15.54
2023-05-18T10:27:53.889Z,15.57
2023-05-18T10:30:23.343Z,15.54
2023-05-18T10:32:51.529Z,15.55
2023-05-18T10:35:19.546Z,15.59
2023-05-18T10:37:51.547Z,15.63
2023-05-18T10:40:19.790Z,15.61
2023-05-18T10:42:47.953Z,15.58
2023-05-18T10:45:16.669Z,15.61
2023-05-18T10:47:45.374Z,15.60
2023-05-18T10:50:13.545Z,15.61
2023-05-18T10:52:41.722Z,15.60
2023-05-18T10:55:10.283Z,15.61
2023-05-18T10:57:43.788Z,15.67
2023-05-18T11:00:12.154Z,15.74
2023-05-18T11:02:44.140Z,15.79
2023-05-18T11:05:12.986Z,15.81
2023-05-18T11:07:41.211Z,15.82
2023-05-18T11:10:10.969Z,15.84
2023-05-18T11:12:39.677Z,15.78
2023-05-18T11:15:08.473Z,15.73
2023-05-18T11:17:36.635Z,15.67
2023-05-18T11:20:09.440Z,15.59
2023-05-18T11:23:00.561Z,15.54
2023-05-18T11:25:28.714Z,15.49
2023-05-18T11:27:59.068Z,15.53
2023-05-18T11:30:37.741Z,15.49
2023-05-18T11:33:20.312Z,15.46
2023-05-18T11:36:10.210Z,15.43
2023-05-18T11:39:04.200Z,15.46
2023-05-18T11:41:40.695Z,15.52
2023-05-18T11:44:17.719Z,15.56
2023-05-18T11:46:57.893Z,15.56
2023-05-18T11:49:46.952Z,15.60
2023-05-18T11:52:24.894Z,15.61
2023-05-18T11:54:54.352Z,15.56
2023-05-18T11:57:43.573Z,15.58
2023-05-18T12:00:13.471Z,15.52
2023-05-18T12:02:44.807Z,15.48
2023-05-18T12:05:13.168Z,15.43
2023-05-18T12:07:41.502Z,15.42
2023-05-18T12:10:11.187Z,15.44
2023-05-18T12:12:39.720Z,15.49
2023-05-18T12:15:09.434Z,15.45
2023-05-18T12:17:47.350Z,15.43
2023-05-18T12:20:15.362Z,15.38
2023-05-18T12:22:47.836Z,15.33
2023-05-18T12:25:15.932Z,15.29
2023-05-18T12:27:49.152Z,15.27
2023-05-18T12:30:17.007Z,15.24
2023-05-18T12:32:53.292Z,15.23
2023-05-18T12:35:25.473Z,15.20
2023-05-18T12:37:53.637Z,15.22
2023-05-18T12:40:21.889Z,15.20
2023-05-18T12:43:00.978Z,15.17
2023-05-18T12:45:33.595Z,15.13
2023-05-18T12:48:12.454Z,15.12
2023-05-18T12:50:50.614Z,15.11
2023-05-18T12:53:19.279Z,15.09
2023-05-18T12:55:47.250Z,15.06
2023-05-18T12:58:18.138Z,15.04
2023-05-18T13:00:47.381Z,15.01
2023-05-18T13:03:19.946Z,14.99
2023-05-18T13:06:07.777Z,15.00
2023-05-18T13:08:36.412Z,14.99
2023-05-18T13:11:13.607Z,14.96
2023-05-18T13:14:07.867Z,14.95
2023-05-18T13:16:36.530Z,14.94
2023-05-18T13:19:09.646Z,14.92
2023-05-18T13:21:37.895Z,14.91
2023-05-18T13:24:06.328Z,14.95
2023-05-18T13:26:34.460Z,14.97
2023-05-18T13:29:02.553Z,14.97
2023-05-18T13:31:33.518Z,14.99
2023-05-18T13:34:01.835Z,14.99
2023-05-18T13:36:31.055Z,15.01
2023-05-18T13:38:59.127Z,15.00
2023-05-18T13:41:27.293Z,15.03
2023-05-18T13:43:55.377Z,15.08
2023-05-18T13:46:23.458Z,15.05
2023-05-18T13:48:51.496Z,15.07
2023-05-18T13:51:19.596Z,15.05
2023-05-18T13:53:47.685Z,15.06
2023-05-18T13:56:15.634Z,15.05
2023-05-18T13:58:45.013Z,15.05
2023-05-18T14:01:14.022Z,15.02
2023-05-18T14:03:42.394Z,15.01
2023-05-18T14:06:10.573Z,15.01
2023-05-18T14:08:38.664Z,15.00
2023-05-18T14:11:06.883Z,14.99
2023-05-18T14:13:34.914Z,14.99
2023-05-18T14:16:03.006Z,15.00
2023-05-18T14:18:31.022Z,15.02
2023-05-18T14:21:03.405Z,15.01
2023-05-18T14:23:31.508Z,15.01
2023-05-18T14:25:59.567Z,15.03
2023-05-18T14:28:27.551Z,15.04
2023-05-18T14:30:55.679Z,15.02
2023-05-18T14:33:23.706Z,15.03
2023-05-18T14:35:51.713Z,15.02
2023-05-18T14:38:19.739Z,15.01
2023-05-18T14:40:47.788Z,15.00
2023-05-18T14:43:15.834Z,15.04
2023-05-18T14:45:48.324Z,15.04
2023-05-18T14:48:21.458Z,15.01
2023-05-18T14:50:49.522Z,14.98
2023-05-18T14:53:17.516Z,14.99
2023-05-18T14:55:45.605Z,14.98
2023-05-18T14:58:16.206Z,14.95
2023-05-18T15:00:44.314Z,14.97
2023-05-18T15:03:12.646Z,14.97
2023-05-18T15:05:40.925Z,14.98
2023-05-18T15:08:09.042Z,15.06
2023-05-18T15:10:37.260Z,15.04
2023-05-18T15:13:05.298Z,15.03
2023-05-18T15:15:33.311Z,15.02
2023-05-18T15:18:01.298Z,15.01
2023-05-18T15:20:29.508Z,15.02
2023-05-18T15:22:57.739Z,14.98
2023-05-18T15:25:25.780Z,14.98
2023-05-18T15:27:54.990Z,14.96
2023-05-18T15:30:23.045Z,14.93
2023-05-18T15:32:51.143Z,14.91
2023-05-18T15:35:19.223Z,14.90
2023-05-18T15:37:47.554Z,14.88
2023-05-18T15:40:15.609Z,14.86
2023-05-18T15:42:43.831Z,14.82
2023-05-18T15:45:12.249Z,14.82
2023-05-18T15:47:40.408Z,14.79
2023-05-18T15:50:08.785Z,14.72
2023-05-18T15:52:36.806Z,14.73
2023-05-18T15:55:04.876Z,14.68
2023-05-18T15:57:34.476Z,14.67
2023-05-18T16:00:02.551Z,14.66
2023-05-18T16:02:30.709Z,14.66
2023-05-18T16:04:58.787Z,14.65
2023-05-18T16:07:26.896Z,14.66
2023-05-18T16:09:54.993Z,14.68
2023-05-18T16:12:22.989Z,14.66
2023-05-18T16:14:51.656Z,14.64
2023-05-18T16:17:19.886Z,14.63
2023-05-18T16:19:48.225Z,14.62
2023-05-18T16:22:16.344Z,14.61
2023-05-18T16:24:44.985Z,14.61
2023-05-18T16:27:13.066Z,14.59
2023-05-18T16:29:42.746Z,14.60
2023-05-18T16:32:11.437Z,14.61
2023-05-18T16:34:39.496Z,14.61
2023-05-18T16:37:07.547Z,14.60
2023-05-18T16:39:35.677Z,14.59
2023-05-18T16:42:03.741Z,14.59
2023-05-18T16:44:31.858Z,14.57
2023-05-18T16:47:00.062Z,14.55
2023-05-18T16:49:28.246Z,14.55
2023-05-18T16:51:56.249Z,14.56
2023-05-18T16:54:24.446Z,14.56
2023-05-18T16:56:53.347Z,14.54
2023-05-18T16:59:23.999Z,14.54
2023-05-18T17:01:52.053Z,14.51
2023-05-18T17:04:20.155Z,14.50
2023-05-18T17:06:48.291Z,14.51
2023-05-18T17:09:17.687Z,14.51
2023-05-18T17:11:45.743Z,14.49
2023-05-18T17:14:13.822Z,14.49
2023-05-18T17:16:42.434Z,14.46
2023-05-18T17:19:10.543Z,14.45
2023-05-18T17:21:38.588Z,14.46
2023-05-18T17:24:06.777Z,14.46
2023-05-18T17:26:34.774Z,14.45
2023-05-18T17:29:02.952Z,14.45
2023-05-18T17:31:31.823Z,14.45
2023-05-18T17:33:59.933Z,14.43
2023-05-18T17:36:28.037Z,14.38
2023-05-18T17:38:57.506Z,14.36
2023-05-18T17:41:27.137Z,14.37
2023-05-18T17:43:55.177Z,14.38
2023-05-18T17:46:23.242Z,14.37
2023-05-18T17:48:51.399Z,14.34
2023-05-18T17:51:19.473Z,14.34
2023-05-18T17:53:47.685Z,14.35
2023-05-18T17:56:15.764Z,14.32
2023-05-18T17:58:43.825Z,14.30
2023-05-18T18:01:13.495Z,14.31
2023-05-18T18:03:41.645Z,14.33
2023-05-18T18:06:10.024Z,14.29
2023-05-18T18:08:38.299Z,14.30
2023-05-18T18:11:09.055Z,14.30
2023-05-18T18:13:37.381Z,14.27
2023-05-18T18:16:05.686Z,14.25
2023-05-18T18:18:34.126Z,14.24
2023-05-18T18:21:02.216Z,14.24
2023-05-18T18:23:30.208Z,14.22
2023-05-18T18:25:58.195Z,14.20
2023-05-18T18:28:26.254Z,14.19
2023-05-18T18:30:54.464Z,14.16
2023-05-18T18:33:22.715Z,14.14
2023-05-18T18:35:50.820Z,14.14
2023-05-18T18:38:18.841Z,14.11
2023-05-18T18:40:46.941Z,14.09
2023-05-18T18:43:15.050Z,14.06
2023-05-18T18:45:43.278Z,14.02
2023-05-18T18:48:11.434Z,14.00
2023-05-18T18:50:39.464Z,13.99
2023-05-18T18:53:07.567Z,13.99
2023-05-18T18:55:35.618Z,13.96
2023-05-18T18:58:03.773Z,13.94
2023-05-18T19:00:31.948Z,13.92
2023-05-18T19:02:59.976Z,13.90
2023-05-18T19:05:28.383Z,13.90
2023-05-18T19:07:57.015Z,13.90
2023-05-18T19:10:25.174Z,13.87
2023-05-18T19:12:53.704Z,13.83
2023-05-18T19:15:22.678Z,13.82
2023-05-18T19:17:55.081Z,13.80
2023-05-18T19:20:23.656Z,13.77
2023-05-18T19:22:51.808Z,13.76
2023-05-18T19:25:19.844Z,13.75
2023-05-18T19:27:47.935Z,13.75
2023-05-18T19:30:22.387Z,13.70
2023-05-18T19:32:51.279Z,13.71
2023-05-18T19:35:20.267Z,13.71
2023-05-18T19:37:48.665Z,13.69
2023-05-18T19:40:17.847Z,13.66
2023-05-18T19:42:46.045Z,13.65
2023-05-18T19:45:14.198Z,13.65
2023-05-18T19:47:42.215Z,13.66
2023-05-18T19:50:11.746Z,13.64
2023-05-18T19:52:39.733Z,13.64
2023-05-18T19:55:08.333Z,13.66
2023-05-18T19:57:36.396Z,13.65
2023-05-18T20:00:05.469Z,13.63
2023-05-18T20:02:33.529Z,13.61
2023-05-18T20:05:02.027Z,13.63
2023-05-18T20:07:30.064Z,13.63
2023-05-18T20:09:58.069Z,13.63
2023-05-18T20:12:26.257Z,13.60
2023-05-18T20:14:57.613Z,13.59
2023-05-18T20:17:26.987Z,13.58
2023-05-18T20:19:55.107Z,13.55
2023-05-18T20:22:23.184Z,13.53
2023-05-18T20:24:51.262Z,13.52
2023-05-18T20:27:19.423Z,13.51
2023-05-18T20:29:48.490Z,13.52
2023-05-18T20:32:16.823Z,13.52
2023-05-18T20:34:45.879Z,13.49
2023-05-18T20:37:15.222Z,13.48
2023-05-18T20:39:51.661Z,13.48
2023-05-18T20:42:23.279Z,13.47
2023-05-18T20:44:52.826Z,13.44
2023-05-18T20:47:21.705Z,13.44
2023-05-18T20:49:49.882Z,13.44
2023-05-18T20:52:18.201Z,13.43
2023-05-18T20:54:46.318Z,13.42
2023-05-18T20:57:14.483Z,13.43
2023-05-18T20:59:42.773Z,13.41
2023-05-18T21:02:10.774Z,13.39
2023-05-18T21:04:38.796Z,13.40
2023-05-18T21:07:06.924Z,13.38
2023-05-18T21:09:35.860Z,13.33
2023-05-18T21:12:04.057Z,13.34
2023-05-18T21:14:32.204Z,13.30
2023-05-18T21:17:00.203Z,13.30
2023-05-18T21:19:28.190Z,13.24
2023-05-18T21:21:56.327Z,13.23
2023-05-18T21:24:24.325Z,13.23
2023-05-18T21:26:52.395Z,13.23
2023-05-18T21:29:20.444Z,13.23
2023-05-18T21:31:49.978Z,13.23
2023-05-18T21:34:18.098Z,13.21
2023-05-18T21:36:46.114Z,13.21
2023-05-18T21:39:14.127Z,13.19
2023-05-18T21:41:43.738Z,13.20
2023-05-18T21:44:11.889Z,13.19
2023-05-18T21:46:40.084Z,13.20
2023-05-18T21:49:08.477Z,13.17
2023-05-18T21:51:36.512Z,13.18
2023-05-18T21:54:05.340Z,13.14
2023-05-18T21:56:35.957Z,13.12
2023-05-18T21:59:04.012Z,13.13
2023-05-18T22:01:32.303Z,13.09
2023-05-18T22:04:00.329Z,13.07
2023-05-18T22:06:28.312Z,13.08
2023-05-18T22:08:56.584Z,13.08
2023-05-18T22:11:24.687Z,13.07
2023-05-18T22:13:52.841Z,13.07
2023-05-18T22:16:20.852Z,13.05
2023-05-18T22:18:48.874Z,13.05
2023-05-18T22:21:17.120Z,13.03
2023-05-18T22:23:45.151Z,13.03
2023-05-18T22:26:13.609Z,13.04
2023-05-18T22:28:41.883Z,13.04
2023-05-18T22:31:09.980Z,13.03
2023-05-18T22:33:37.978Z,13.02
2023-05-18T22:36:06.338Z,13.00
2023-05-18T22:38:34.280Z,12.97
2023-05-18T22:41:02.245Z,12.96
2023-05-18T22:43:31.170Z,12.93
2023-05-18T22:45:59.371Z,12.94
2023-05-18T22:48:27.660Z,12.94
2023-05-18T22:50:55.937Z,12.93
2023-05-18T22:53:23.897Z,12.91
2023-05-18T22:55:51.919Z,12.86
2023-05-18T22:58:19.909Z,12.88
2023-05-18T23:00:47.867Z,12.86
2023-05-18T23:03:18.543Z,12.86
2023-05-18T23:05:49.582Z,12.85
2023-05-18T23:08:17.625Z,12.84
2023-05-18T23:10:45.763Z,12.85
2023-05-18T23:13:17.476Z,12.82
2023-05-18T23:15:45.737Z,12.82
2023-05-18T23:18:13.967Z,12.79
2023-05-18T23:20:43.341Z,12.77
2023-05-18T23:23:11.395Z,12.76
2023-05-18T23:25:39.417Z,12.74
2023-05-18T23:28:07.435Z,12.74
2023-05-18T23:30:35.384Z,12.72
2023-05-18T23:33:03.867Z,12.68
2023-05-18T23:35:32.328Z,12.70
2023-05-18T23:38:03.412Z,12.67
2023-05-18T23:40:31.837Z,12.65
2023-05-18T23:43:02.132Z,12.64
2023-05-18T23:45:30.475Z,12.61
2023-05-18T23:47:59.141Z,12.61
2023-05-18T23:50:27.612Z,12.58
2023-05-18T23:52:55.694Z,12.59
2023-05-18T23:55:27.039Z,12.57
2023-05-18T23:57:54.984Z,12.55
